createdAt,value
2017-09-05T00:00:05.495Z,14.68
2017-09-05T00:00:46.063Z,14.58
2017-09-05T00:01:26.644Z,14.7
2017-09-05T00:02:07.254Z,14.72
2017-09-05T00:02:47.849Z,14.66
2017-09-05T00:03:28.420Z,14.66
2017-09-05T00:04:09.024Z,14.69
2017-09-05T00:04:49.682Z,14.65
2017-09-05T00:05:30.271Z,14.66
2017-09-05T00:06:10.854Z,14.55
2017-09-05T00:06:51.447Z,14.6
2017-09-05T00:07:32.034Z,14.68
2017-09-05T00:08:12.606Z,14.6
2017-09-05T00:08:53.180Z,14.68
2017-09-05T00:09:33.747Z,14.69
2017-09-05T00:10:14.364Z,14.69
2017-09-05T00:10:54.951Z,14.68
2017-09-05T00:11:35.516Z,14.65
2017-09-05T00:12:16.107Z,14.7
2017-09-05T00:12:56.686Z,14.58
2017-09-05T00:13:37.270Z,14.66
2017-09-05T00:14:17.848Z,14.62
2017-09-05T00:14:58.437Z,14.63
2017-09-05T00:15:39.014Z,14.6
2017-09-05T00:16:19.581Z,14.58
2017-09-05T00:17:00.159Z,14.62
2017-09-05T00:17:40.750Z,14.6
2017-09-05T00:18:21.324Z,14.59
2017-09-05T00:19:01.894Z,14.53
2017-09-05T00:19:42.469Z,14.62
2017-09-05T00:20:23.077Z,14.53
2017-09-05T00:21:03.651Z,14.63
2017-09-05T00:21:44.241Z,14.51
2017-09-05T00:22:24.842Z,14.53
2017-09-05T00:23:05.415Z,14.54
2017-09-05T00:23:46.006Z,14.5
2017-09-05T00:24:26.576Z,14.5
2017-09-05T00:25:07.149Z,14.48
2017-09-05T00:25:47.713Z,14.58
2017-09-05T00:26:31.048Z,14.45
2017-09-05T00:27:11.655Z,14.59
2017-09-05T00:27:52.227Z,14.45
2017-09-05T00:28:32.802Z,14.45
2017-09-05T00:29:13.385Z,14.48
2017-09-05T00:29:53.971Z,14.55
2017-09-05T00:30:34.575Z,14.58
2017-09-05T00:31:15.177Z,14.5
2017-09-05T00:31:55.775Z,14.48
2017-09-05T00:32:36.409Z,14.53
2017-09-05T00:33:17.021Z,14.54
2017-09-05T00:33:57.606Z,14.54
2017-09-05T00:34:38.185Z,14.5
2017-09-05T00:35:18.779Z,14.5
2017-09-05T00:35:59.364Z,14.54
2017-09-05T00:36:39.946Z,14.59
2017-09-05T00:37:20.514Z,14.53
2017-09-05T00:38:01.115Z,14.53
2017-09-05T00:38:41.685Z,14.44
2017-09-05T00:39:22.279Z,14.48
2017-09-05T00:40:02.847Z,14.48
2017-09-05T00:40:43.430Z,14.36
2017-09-05T00:41:24.022Z,14.4
2017-09-05T00:42:04.647Z,14.37
2017-09-05T00:42:45.238Z,14.4
2017-09-05T00:43:25.804Z,14.33
2017-09-05T00:44:06.368Z,14.37
2017-09-05T00:44:46.951Z,14.32
2017-09-05T00:45:27.534Z,14.44
2017-09-05T00:46:08.101Z,14.37
2017-09-05T00:46:48.668Z,14.33
2017-09-05T00:47:29.254Z,14.35
2017-09-05T00:48:09.820Z,14.3
2017-09-05T00:48:50.407Z,14.35
2017-09-05T00:49:30.984Z,14.4
2017-09-05T00:50:11.555Z,14.36
2017-09-05T00:50:52.140Z,14.33
2017-09-05T00:51:32.727Z,14.3
2017-09-05T00:52:13.318Z,14.36
2017-09-05T00:52:53.883Z,14.32
2017-09-05T00:53:34.467Z,14.25
2017-09-05T00:54:15.035Z,14.28
2017-09-05T00:54:55.615Z,14.32
2017-09-05T00:55:36.222Z,14.35
2017-09-05T00:56:16.817Z,14.35
2017-09-05T00:56:57.446Z,14.29
2017-09-05T00:57:38.023Z,14.35
2017-09-05T00:58:18.618Z,14.22
2017-09-05T00:58:59.225Z,14.33
2017-09-05T00:59:39.817Z,14.2
2017-09-05T01:00:20.437Z,14.32
2017-09-05T01:01:01.043Z,14.25
2017-09-05T01:01:41.616Z,14.26
2017-09-05T01:02:22.211Z,14.26
2017-09-05T01:03:02.791Z,14.18
2017-09-05T01:03:43.370Z,14.22
2017-09-05T01:04:23.974Z,14.32
2017-09-05T01:05:04.546Z,14.23
2017-09-05T01:05:45.125Z,14.25
2017-09-05T01:06:25.698Z,14.29
2017-09-05T01:07:06.262Z,14.26
2017-09-05T01:07:46.865Z,14.35
2017-09-05T01:08:27.432Z,14.23
2017-09-05T01:09:07.986Z,14.3
2017-09-05T01:09:48.595Z,14.26
2017-09-05T01:10:29.181Z,14.18
2017-09-05T01:11:09.798Z,14.26
2017-09-05T01:11:50.391Z,14.2
2017-09-05T01:12:30.999Z,14.18
2017-09-05T01:13:11.554Z,14.17
2017-09-05T01:13:52.124Z,14.15
2017-09-05T01:14:32.699Z,14.11
2017-09-05T01:15:13.273Z,14.12
2017-09-05T01:15:53.840Z,14.11
2017-09-05T01:16:34.411Z,14.15
2017-09-05T01:17:15.031Z,14.03
2017-09-05T01:17:55.579Z,14.04
2017-09-05T01:18:36.146Z,14.08
2017-09-05T01:19:16.712Z,14.11
2017-09-05T01:19:57.280Z,14.05
2017-09-05T01:20:37.844Z,14.03
2017-09-05T01:21:18.416Z,14.03
2017-09-05T01:21:59.015Z,14.05
2017-09-05T01:22:39.605Z,14.04
2017-09-05T01:23:20.186Z,14.05
2017-09-05T01:24:00.778Z,14.08
2017-09-05T01:24:41.340Z,14.03
2017-09-05T01:25:21.915Z,14.05
2017-09-05T01:26:02.480Z,14
2017-09-05T01:26:43.052Z,14.05
2017-09-05T01:27:23.674Z,14.03
2017-09-05T01:28:04.272Z,14.11
2017-09-05T01:28:44.868Z,14.07
2017-09-05T01:29:25.457Z,13.99
2017-09-05T01:30:06.043Z,14.07
2017-09-05T01:30:46.603Z,13.99
2017-09-05T01:31:27.174Z,14.04
2017-09-05T01:32:07.771Z,14.05
2017-09-05T01:32:48.345Z,13.99
2017-09-05T01:33:28.921Z,14.05
2017-09-05T01:34:09.511Z,14.07
2017-09-05T01:34:50.099Z,13.99
2017-09-05T01:35:30.663Z,13.99
2017-09-05T01:36:11.235Z,14.03
2017-09-05T01:36:51.822Z,13.99
2017-09-05T01:37:32.404Z,14.03
2017-09-05T01:38:12.971Z,13.9
2017-09-05T01:38:53.537Z,13.99
2017-09-05T01:39:34.108Z,13.99
2017-09-05T01:40:14.693Z,13.96
2017-09-05T01:40:55.265Z,13.96
2017-09-05T01:41:35.820Z,14.03
2017-09-05T01:42:16.389Z,13.97
2017-09-05T01:42:56.961Z,13.97
2017-09-05T01:43:37.536Z,13.93
2017-09-05T01:44:18.111Z,13.95
2017-09-05T01:44:58.675Z,13.92
2017-09-05T01:45:39.234Z,13.93
2017-09-05T01:46:19.838Z,13.93
2017-09-05T01:47:00.411Z,14.03
2017-09-05T01:47:40.985Z,13.99
2017-09-05T01:48:21.549Z,13.99
2017-09-05T01:49:02.167Z,14.04
2017-09-05T01:49:42.752Z,13.96
2017-09-05T01:50:23.346Z,13.92
2017-09-05T01:51:03.939Z,13.89
2017-09-05T01:51:44.521Z,13.9
2017-09-05T01:52:25.092Z,13.96
2017-09-05T01:53:05.683Z,13.97
2017-09-05T01:53:46.321Z,13.97
2017-09-05T01:54:26.881Z,13.97
2017-09-05T01:55:07.446Z,13.9
2017-09-05T01:55:48.016Z,14.03
2017-09-05T01:56:28.601Z,13.95
2017-09-05T01:57:09.183Z,13.9
2017-09-05T01:57:49.754Z,13.95
2017-09-05T01:58:30.319Z,13.89
2017-09-05T01:59:10.898Z,13.86
2017-09-05T01:59:51.477Z,13.9
2017-09-05T02:00:32.037Z,13.87
2017-09-05T02:01:12.711Z,13.87
2017-09-05T02:01:53.217Z,13.9
2017-09-05T02:02:33.787Z,13.86
2017-09-05T02:03:14.381Z,13.89
2017-09-05T02:03:54.978Z,13.89
2017-09-05T02:04:35.569Z,13.83
2017-09-05T02:05:16.198Z,13.9
2017-09-05T02:05:56.788Z,13.97
2017-09-05T02:06:37.364Z,13.96
2017-09-05T02:07:17.925Z,13.86
2017-09-05T02:07:58.490Z,13.89
2017-09-05T02:08:39.093Z,13.93
2017-09-05T02:09:19.710Z,13.92
2017-09-05T02:10:00.304Z,13.89
2017-09-05T02:10:40.865Z,13.89
2017-09-05T02:11:21.450Z,13.9
2017-09-05T02:12:02.027Z,13.89
2017-09-05T02:12:42.597Z,13.93
2017-09-05T02:13:23.177Z,13.89
2017-09-05T02:14:03.761Z,13.89
2017-09-05T02:14:44.364Z,13.92
2017-09-05T02:15:24.965Z,13.95
2017-09-05T02:16:05.574Z,13.89
2017-09-05T02:16:46.151Z,13.95
2017-09-05T02:17:26.733Z,13.89
2017-09-05T02:18:07.288Z,13.92
2017-09-05T02:18:47.862Z,13.9
2017-09-05T02:19:28.449Z,13.93
2017-09-05T02:20:09.037Z,13.89
2017-09-05T02:20:49.600Z,13.93
2017-09-05T02:21:30.162Z,13.9
2017-09-05T02:22:10.736Z,13.9
2017-09-05T02:22:51.311Z,13.92
2017-09-05T02:23:31.887Z,13.92
2017-09-05T02:24:12.463Z,13.93
2017-09-05T02:24:53.076Z,13.93
2017-09-05T02:25:33.641Z,13.92
2017-09-05T02:26:14.221Z,13.89
2017-09-05T02:26:54.813Z,13.9
2017-09-05T02:27:35.397Z,13.87
2017-09-05T02:28:15.993Z,13.87
2017-09-05T02:28:56.574Z,13.93
2017-09-05T02:29:37.167Z,13.9
2017-09-05T02:30:17.748Z,13.9
2017-09-05T02:30:58.327Z,13.86
2017-09-05T02:31:38.897Z,13.87
2017-09-05T02:32:19.479Z,13.9
2017-09-05T02:33:00.092Z,13.86
2017-09-05T02:33:40.690Z,13.89
2017-09-05T02:34:21.287Z,13.93
2017-09-05T02:35:01.851Z,13.83
2017-09-05T02:35:42.446Z,13.81
2017-09-05T02:36:23.027Z,13.79
2017-09-05T02:37:03.591Z,13.77
2017-09-05T02:37:44.170Z,13.87
2017-09-05T02:38:24.742Z,13.85
2017-09-05T02:39:05.335Z,13.79
2017-09-05T02:39:45.907Z,13.81
2017-09-05T02:40:26.473Z,13.81
2017-09-05T02:41:07.111Z,13.78
2017-09-05T02:41:47.679Z,13.78
2017-09-05T02:42:28.258Z,13.81
2017-09-05T02:43:08.860Z,13.78
2017-09-05T02:43:49.415Z,13.78
2017-09-05T02:44:29.988Z,13.75
2017-09-05T02:45:10.576Z,13.75
2017-09-05T02:45:51.168Z,13.78
2017-09-05T02:46:31.724Z,13.75
2017-09-05T02:47:12.328Z,13.81
2017-09-05T02:47:52.888Z,13.77
2017-09-05T02:48:33.468Z,13.83
2017-09-05T02:49:14.056Z,13.79
2017-09-05T02:49:54.631Z,13.78
2017-09-05T02:50:35.218Z,13.78
2017-09-05T02:51:15.796Z,13.83
2017-09-05T02:51:56.380Z,13.86
2017-09-05T02:52:36.942Z,13.79
2017-09-05T02:53:17.509Z,13.83
2017-09-05T02:53:58.084Z,13.83
2017-09-05T02:54:38.669Z,13.77
2017-09-05T02:55:19.241Z,13.77
2017-09-05T02:55:59.813Z,13.75
2017-09-05T02:56:40.392Z,13.81
2017-09-05T02:57:20.983Z,13.77
2017-09-05T02:58:01.538Z,13.81
2017-09-05T02:58:42.111Z,13.75
2017-09-05T02:59:22.692Z,13.77
2017-09-05T03:00:03.266Z,13.79
2017-09-05T03:00:43.843Z,13.79
2017-09-05T03:01:24.422Z,13.78
2017-09-05T03:02:05.005Z,13.87
2017-09-05T03:02:45.583Z,13.78
2017-09-05T03:03:26.158Z,13.85
2017-09-05T03:04:06.728Z,13.85
2017-09-05T03:04:47.320Z,13.83
2017-09-05T03:05:27.890Z,13.79
2017-09-05T03:06:08.484Z,13.77
2017-09-05T03:06:49.069Z,13.77
2017-09-05T03:07:29.647Z,13.79
2017-09-05T03:08:10.246Z,13.77
2017-09-05T03:08:50.812Z,13.71
2017-09-05T03:09:31.402Z,13.81
2017-09-05T03:10:11.988Z,13.77
2017-09-05T03:10:52.572Z,13.72
2017-09-05T03:11:33.133Z,13.68
2017-09-05T03:12:13.704Z,13.72
2017-09-05T03:12:54.289Z,13.71
2017-09-05T03:13:34.868Z,13.72
2017-09-05T03:14:15.461Z,13.67
2017-09-05T03:14:56.046Z,13.71
2017-09-05T03:15:36.620Z,13.71
2017-09-05T03:16:17.189Z,13.75
2017-09-05T03:16:57.753Z,13.7
2017-09-05T03:17:38.357Z,13.68
2017-09-05T03:18:18.938Z,13.71
2017-09-05T03:18:59.492Z,13.75
2017-09-05T03:19:40.126Z,13.7
2017-09-05T03:20:20.697Z,13.57
2017-09-05T03:21:01.268Z,13.6
2017-09-05T03:21:41.863Z,13.67
2017-09-05T03:22:22.479Z,13.7
2017-09-05T03:23:03.061Z,13.59
2017-09-05T03:23:43.634Z,13.6
2017-09-05T03:24:24.196Z,13.67
2017-09-05T03:25:04.760Z,13.59
2017-09-05T03:25:45.349Z,13.54
2017-09-05T03:26:25.963Z,13.65
2017-09-05T03:27:06.523Z,13.54
2017-09-05T03:27:47.104Z,13.65
2017-09-05T03:28:27.734Z,13.54
2017-09-05T03:29:08.320Z,13.59
2017-09-05T03:29:48.888Z,13.59
2017-09-05T03:30:29.456Z,13.52
2017-09-05T03:31:10.013Z,13.5
2017-09-05T03:31:50.587Z,13.49
2017-09-05T03:32:31.182Z,13.57
2017-09-05T03:33:11.755Z,13.53
2017-09-05T03:33:52.318Z,13.5
2017-09-05T03:34:32.890Z,13.46
2017-09-05T03:35:13.486Z,13.47
2017-09-05T03:35:54.060Z,13.42
2017-09-05T03:36:34.634Z,13.44
2017-09-05T03:37:15.196Z,13.47
2017-09-05T03:37:55.786Z,13.54
2017-09-05T03:38:36.366Z,13.49
2017-09-05T03:39:16.952Z,13.56
2017-09-05T03:39:57.531Z,13.49
2017-09-05T03:40:38.101Z,13.54
2017-09-05T03:41:18.667Z,13.53
2017-09-05T03:41:59.239Z,13.53
2017-09-05T03:42:39.837Z,13.47
2017-09-05T03:43:20.422Z,13.56
2017-09-05T03:44:00.997Z,13.44
2017-09-05T03:44:41.569Z,13.56
2017-09-05T03:45:22.161Z,13.54
2017-09-05T03:46:02.763Z,13.56
2017-09-05T03:46:43.354Z,13.44
2017-09-05T03:47:23.928Z,13.49
2017-09-05T03:48:04.492Z,13.56
2017-09-05T03:48:45.049Z,13.59
2017-09-05T03:49:25.607Z,13.52
2017-09-05T03:50:06.186Z,13.56
2017-09-05T03:50:46.762Z,13.47
2017-09-05T03:51:27.338Z,13.53
2017-09-05T03:52:07.922Z,13.5
2017-09-05T03:52:48.539Z,13.54
2017-09-05T03:53:29.110Z,13.56
2017-09-05T03:54:09.678Z,13.53
2017-09-05T03:54:50.252Z,13.5
2017-09-05T03:55:30.816Z,13.46
2017-09-05T03:56:11.396Z,13.47
2017-09-05T03:56:51.983Z,13.53
2017-09-05T03:57:32.561Z,13.5
2017-09-05T03:58:13.128Z,13.47
2017-09-05T03:58:53.718Z,13.47
2017-09-05T03:59:34.286Z,13.54
2017-09-05T04:00:14.858Z,13.46
2017-09-05T04:00:55.414Z,13.5
2017-09-05T04:01:36.034Z,13.52
2017-09-05T04:02:16.609Z,13.47
2017-09-05T04:02:57.225Z,13.53
2017-09-05T04:03:37.795Z,13.52
2017-09-05T04:04:18.362Z,13.44
2017-09-05T04:04:58.955Z,13.53
2017-09-05T04:05:39.544Z,13.49
2017-09-05T04:06:20.110Z,13.46
2017-09-05T04:07:00.716Z,13.44
2017-09-05T04:07:41.322Z,13.42
2017-09-05T04:08:21.934Z,13.39
2017-09-05T04:09:02.518Z,13.44
2017-09-05T04:09:43.091Z,13.44
2017-09-05T04:10:23.670Z,13.46
2017-09-05T04:11:04.253Z,13.39
2017-09-05T04:11:44.873Z,13.39
2017-09-05T04:12:25.456Z,13.44
2017-09-05T04:13:06.020Z,13.44
2017-09-05T04:13:46.603Z,13.38
2017-09-05T04:14:27.176Z,13.46
2017-09-05T04:15:07.740Z,13.39
2017-09-05T04:15:48.301Z,13.44
2017-09-05T04:16:28.885Z,13.46
2017-09-05T04:17:09.469Z,13.39
2017-09-05T04:17:50.052Z,13.38
2017-09-05T04:18:30.638Z,13.33
2017-09-05T04:19:11.241Z,13.46
2017-09-05T04:19:51.806Z,13.38
2017-09-05T04:20:32.393Z,13.39
2017-09-05T04:21:12.978Z,13.46
2017-09-05T04:21:53.585Z,13.52
2017-09-05T04:22:34.195Z,13.42
2017-09-05T04:23:14.761Z,13.47
2017-09-05T04:23:55.374Z,13.46
2017-09-05T04:24:35.950Z,13.47
2017-09-05T04:25:16.521Z,13.41
2017-09-05T04:25:57.103Z,13.49
2017-09-05T04:26:37.699Z,13.44
2017-09-05T04:27:18.276Z,13.47
2017-09-05T04:27:58.844Z,13.46
2017-09-05T04:28:39.433Z,13.42
2017-09-05T04:29:20.011Z,13.44
2017-09-05T04:30:00.567Z,13.46
2017-09-05T04:30:41.135Z,13.44
2017-09-05T04:31:21.736Z,13.35
2017-09-05T04:32:02.308Z,13.49
2017-09-05T04:32:42.887Z,13.35
2017-09-05T04:33:23.456Z,13.39
2017-09-05T04:34:04.039Z,13.37
2017-09-05T04:34:44.637Z,13.44
2017-09-05T04:35:25.241Z,13.39
2017-09-05T04:36:05.813Z,13.35
2017-09-05T04:36:46.382Z,13.44
2017-09-05T04:37:26.949Z,13.47
2017-09-05T04:38:07.524Z,13.44
2017-09-05T04:38:48.096Z,13.39
2017-09-05T04:39:28.672Z,13.37
2017-09-05T04:40:09.243Z,13.38
2017-09-05T04:40:49.823Z,13.52
2017-09-05T04:41:30.402Z,13.6
2017-09-05T04:42:10.974Z,13.71
2017-09-05T04:42:51.539Z,13.85
2017-09-05T04:43:32.105Z,13.89
2017-09-05T04:44:12.659Z,13.89
2017-09-05T04:44:53.265Z,14.07
2017-09-05T04:45:33.846Z,14.11
2017-09-05T04:46:14.419Z,14.14
2017-09-05T04:46:55.005Z,14.17
2017-09-05T04:47:35.581Z,14.28
2017-09-05T04:48:16.175Z,14.22
2017-09-05T04:48:56.767Z,14.33
2017-09-05T04:49:37.323Z,14.41
2017-09-05T04:50:17.899Z,14.41
2017-09-05T04:50:58.473Z,14.37
2017-09-05T04:51:39.054Z,14.54
2017-09-05T04:52:19.638Z,14.47
2017-09-05T04:53:00.222Z,14.5
2017-09-05T04:53:40.802Z,14.63
2017-09-05T04:54:21.405Z,14.68
2017-09-05T04:55:01.974Z,14.7
2017-09-05T04:55:42.563Z,14.66
2017-09-05T04:56:23.150Z,14.81
2017-09-05T04:57:03.732Z,14.79
2017-09-05T04:57:44.308Z,14.85
2017-09-05T04:58:24.914Z,14.91
2017-09-05T04:59:05.497Z,14.92
2017-09-05T04:59:46.069Z,14.97
2017-09-05T05:00:26.673Z,15.06
2017-09-05T05:01:07.251Z,15.04
2017-09-05T05:01:47.868Z,15.07
2017-09-05T05:02:28.436Z,15.18
2017-09-05T05:03:09.007Z,15.24
2017-09-05T05:03:49.598Z,15.22
2017-09-05T05:04:30.173Z,15.27
2017-09-05T05:05:10.759Z,15.33
2017-09-05T05:05:51.327Z,15.28
2017-09-05T05:06:31.881Z,15.35
2017-09-05T05:07:12.484Z,15.33
2017-09-05T05:07:53.049Z,15.33
2017-09-05T05:08:33.703Z,15.36
2017-09-05T05:09:14.267Z,15.4
2017-09-05T05:09:54.834Z,15.39
2017-09-05T05:10:35.404Z,15.33
2017-09-05T05:11:15.978Z,15.42
2017-09-05T05:11:56.552Z,15.33
2017-09-05T05:12:37.146Z,15.35
2017-09-05T05:13:17.701Z,15.42
2017-09-05T05:13:58.276Z,15.39
2017-09-05T05:14:38.844Z,15.39
2017-09-05T05:15:19.424Z,15.37
2017-09-05T05:16:00.005Z,15.31
2017-09-05T05:16:40.612Z,15.35
2017-09-05T05:17:21.182Z,15.37
2017-09-05T05:18:01.767Z,15.39
2017-09-05T05:18:42.341Z,15.35
2017-09-05T05:19:22.908Z,15.4
2017-09-05T05:20:03.477Z,15.42
2017-09-05T05:20:44.061Z,15.33
2017-09-05T05:21:24.669Z,15.47
2017-09-05T05:22:05.273Z,15.46
2017-09-05T05:22:45.857Z,15.4
2017-09-05T05:23:26.455Z,15.47
2017-09-05T05:24:07.028Z,15.44
2017-09-05T05:24:47.606Z,15.33
2017-09-05T05:25:28.176Z,15.39
2017-09-05T05:26:08.743Z,15.29
2017-09-05T05:26:49.309Z,15.19
2017-09-05T05:27:29.915Z,15.14
2017-09-05T05:28:10.626Z,15.11
2017-09-05T05:28:51.208Z,15
2017-09-05T05:29:31.839Z,14.94
2017-09-05T05:30:12.468Z,14.86
2017-09-05T05:30:53.066Z,14.84
2017-09-05T05:31:33.776Z,14.66
2017-09-05T05:32:14.373Z,14.68
2017-09-05T05:32:55.191Z,14.53
2017-09-05T05:33:36.098Z,14.59
2017-09-05T05:34:16.675Z,14.55
2017-09-05T05:34:57.269Z,14.51
2017-09-05T05:35:37.870Z,14.47
2017-09-05T05:36:18.453Z,14.48
2017-09-05T05:36:59.046Z,14.55
2017-09-05T05:37:40.182Z,14.53
2017-09-05T05:38:20.764Z,14.51
2017-09-05T05:39:01.356Z,14.51
2017-09-05T05:39:41.964Z,14.5
2017-09-05T05:40:22.522Z,14.51
2017-09-05T05:41:03.098Z,14.48
2017-09-05T05:41:44.013Z,14.36
2017-09-05T05:42:24.433Z,14.37
2017-09-05T05:43:05.019Z,14.36
2017-09-05T05:43:45.578Z,14.35
2017-09-05T05:44:26.590Z,14.33
2017-09-05T05:45:07.650Z,14.3
2017-09-05T05:45:48.307Z,14.43
2017-09-05T05:46:28.880Z,14.43
2017-09-05T05:47:09.467Z,14.32
2017-09-05T05:47:50.292Z,14.3
2017-09-05T05:48:30.954Z,14.33
2017-09-05T05:49:11.539Z,14.26
2017-09-05T05:49:52.097Z,14.4
2017-09-05T05:50:32.669Z,14.3
2017-09-05T05:51:13.288Z,14.32
2017-09-05T05:51:53.869Z,14.3
2017-09-05T05:52:34.518Z,14.33
2017-09-05T05:53:15.091Z,14.33
2017-09-05T05:53:55.657Z,14.32
2017-09-05T05:54:36.252Z,14.3
2017-09-05T05:55:16.842Z,14.3
2017-09-05T05:55:57.421Z,14.35
2017-09-05T05:56:38.024Z,14.32
2017-09-05T05:57:18.596Z,14.29
2017-09-05T05:57:59.189Z,14.41
2017-09-05T05:58:39.767Z,14.43
2017-09-05T05:59:20.326Z,14.43
2017-09-05T06:00:00.895Z,14.41
2017-09-05T06:00:41.477Z,14.35
2017-09-05T06:01:22.149Z,14.36
2017-09-05T06:02:02.737Z,14.36
2017-09-05T06:02:43.335Z,14.47
2017-09-05T06:03:24.068Z,14.41
2017-09-05T06:04:04.515Z,14.48
2017-09-05T06:04:45.121Z,14.36
2017-09-05T06:05:25.697Z,14.44
2017-09-05T06:06:06.372Z,14.47
2017-09-05T06:06:47.062Z,14.5
2017-09-05T06:07:28.198Z,14.48
2017-09-05T06:08:08.780Z,14.54
2017-09-05T06:08:49.776Z,14.47
2017-09-05T06:09:30.925Z,14.47
2017-09-05T06:10:11.508Z,14.55
2017-09-05T06:10:52.117Z,14.53
2017-09-05T06:11:32.763Z,14.59
2017-09-05T06:12:13.513Z,14.51
2017-09-05T06:12:54.142Z,14.51
2017-09-05T06:13:34.711Z,14.54
2017-09-05T06:14:15.281Z,14.62
2017-09-05T06:14:55.896Z,14.54
2017-09-05T06:15:36.604Z,14.63
2017-09-05T06:16:17.237Z,14.62
2017-09-05T06:16:57.830Z,14.62
2017-09-05T06:17:38.400Z,14.62
2017-09-05T06:18:18.981Z,14.65
2017-09-05T06:18:59.574Z,14.66
2017-09-05T06:19:40.142Z,14.65
2017-09-05T06:20:20.704Z,14.68
2017-09-05T06:21:01.497Z,14.69
2017-09-05T06:21:42.057Z,14.66
2017-09-05T06:22:23.163Z,14.73
2017-09-05T06:23:03.780Z,14.82
2017-09-05T06:23:44.350Z,14.66
2017-09-05T06:24:24.933Z,14.81
2017-09-05T06:25:05.560Z,14.79
2017-09-05T06:25:46.115Z,14.81
2017-09-05T06:26:26.802Z,14.85
2017-09-05T06:27:07.368Z,14.85
2017-09-05T06:27:48.227Z,14.91
2017-09-05T06:28:28.878Z,14.99
2017-09-05T06:29:09.470Z,15.04
2017-09-05T06:29:50.060Z,15.14
2017-09-05T06:30:30.629Z,15.24
2017-09-05T06:31:11.203Z,15.4
2017-09-05T06:31:51.943Z,15.37
2017-09-05T06:32:32.781Z,15.58
2017-09-05T06:33:13.370Z,15.76
2017-09-05T06:33:54.923Z,15.76
2017-09-05T06:35:18.485Z,16
2017-09-05T06:35:59.465Z,16.09
2017-09-05T06:36:40.594Z,16.23
2017-09-05T06:37:21.818Z,16.33
2017-09-05T06:38:02.624Z,16.46
2017-09-05T06:38:43.559Z,16.57
2017-09-05T06:39:24.613Z,16.68
2017-09-05T06:40:05.444Z,16.66
2017-09-05T06:40:47.023Z,16.76
2017-09-05T06:41:27.922Z,16.9
2017-09-05T06:42:08.601Z,17.02
2017-09-05T06:42:49.441Z,17.14
2017-09-05T06:43:31.861Z,17.2
2017-09-05T06:44:12.467Z,17.31
2017-09-05T06:44:53.059Z,17.36
2017-09-05T06:45:33.743Z,17.46
2017-09-05T06:46:14.388Z,17.57
2017-09-05T06:46:54.984Z,17.78
2017-09-05T06:47:36.788Z,17.7
2017-09-05T06:48:17.411Z,17.85
2017-09-05T06:48:58.830Z,17.92
2017-09-05T06:49:39.787Z,17.95
2017-09-05T06:50:20.566Z,18
2017-09-05T06:51:01.753Z,18.11
2017-09-05T06:51:43.530Z,18.16
2017-09-05T06:52:24.589Z,18.2
2017-09-05T06:53:06.660Z,18.25
2017-09-05T06:53:47.484Z,18.28
2017-09-05T06:54:28.233Z,18.34
2017-09-05T06:55:09.068Z,18.4
2017-09-05T06:55:49.659Z,18.41
2017-09-05T06:56:30.288Z,18.45
2017-09-05T06:57:10.885Z,18.55
2017-09-05T06:57:51.552Z,18.58
2017-09-05T06:58:32.173Z,18.62
2017-09-05T06:59:12.756Z,18.66
2017-09-05T06:59:53.363Z,18.73
2017-09-05T07:00:34.135Z,18.73
2017-09-05T07:01:14.604Z,18.78
2017-09-05T07:01:55.393Z,18.88
2017-09-05T07:02:36.156Z,18.99
2017-09-05T07:03:17.296Z,18.95
2017-09-05T07:03:58.183Z,19.07
2017-09-05T07:04:39.480Z,19.12
2017-09-05T07:05:20.365Z,19.16
2017-09-05T07:06:01.042Z,19.31
2017-09-05T07:06:41.847Z,19.4
2017-09-05T07:07:22.858Z,19.4
2017-09-05T07:08:03.905Z,19.56
2017-09-05T07:08:45.142Z,19.54
2017-09-05T07:09:26.243Z,19.67
2017-09-05T07:10:07.420Z,19.74
2017-09-05T07:10:47.930Z,19.79
2017-09-05T07:11:28.520Z,19.79
2017-09-05T07:12:09.138Z,19.96
2017-09-05T07:12:49.893Z,19.95
2017-09-05T07:13:30.670Z,20.11
2017-09-05T07:14:11.259Z,20.19
2017-09-05T07:14:51.868Z,20.21
2017-09-05T07:15:32.433Z,20.22
2017-09-05T07:16:13.039Z,20.32
2017-09-05T07:16:55.319Z,20.31
2017-09-05T07:17:36.117Z,20.41
2017-09-05T07:18:16.697Z,20.51
2017-09-05T07:18:57.268Z,20.6
2017-09-05T07:19:37.874Z,20.72
2017-09-05T07:20:18.422Z,20.72
2017-09-05T07:20:59.008Z,20.84
2017-09-05T07:21:39.601Z,20.88
2017-09-05T07:22:20.261Z,20.93
2017-09-05T07:23:00.815Z,21
2017-09-05T07:23:41.398Z,21.07
2017-09-05T07:24:21.991Z,21.09
2017-09-05T07:25:02.564Z,21.21
2017-09-05T07:25:43.204Z,21.3
2017-09-05T07:26:23.798Z,21.36
2017-09-05T07:27:04.437Z,21.43
2017-09-05T07:27:45.014Z,21.46
2017-09-05T07:28:25.589Z,21.5
2017-09-05T07:29:06.191Z,21.54
2017-09-05T07:29:46.822Z,21.57
2017-09-05T07:30:27.459Z,21.66
2017-09-05T07:31:08.058Z,21.76
2017-09-05T07:31:48.685Z,21.77
2017-09-05T07:32:29.273Z,21.91
2017-09-05T07:33:09.907Z,21.88
2017-09-05T07:33:50.488Z,22
2017-09-05T07:34:31.086Z,22.06
2017-09-05T07:35:11.734Z,22.14
2017-09-05T07:35:52.369Z,22.18
2017-09-05T07:36:32.945Z,22.2
2017-09-05T07:37:13.560Z,22.25
2017-09-05T07:37:54.153Z,22.28
2017-09-05T07:38:34.750Z,22.45
2017-09-05T07:39:15.424Z,22.38
2017-09-05T07:39:56.028Z,22.5
2017-09-05T07:40:36.617Z,22.55
2017-09-05T07:41:17.212Z,22.59
2017-09-05T07:41:58.026Z,22.55
2017-09-05T07:42:38.604Z,22.6
2017-09-05T07:43:19.193Z,22.6
2017-09-05T07:44:00.078Z,22.68
2017-09-05T07:44:40.758Z,22.72
2017-09-05T07:45:21.446Z,22.69
2017-09-05T07:46:02.135Z,22.87
2017-09-05T07:46:43.302Z,22.81
2017-09-05T07:47:24.283Z,22.94
2017-09-05T07:48:04.901Z,22.88
2017-09-05T07:48:45.746Z,23.08
2017-09-05T07:49:26.336Z,23.05
2017-09-05T07:50:07.577Z,23.09
2017-09-05T07:50:48.196Z,23.13
2017-09-05T07:51:28.805Z,23.2
2017-09-05T07:52:09.409Z,23.2
2017-09-05T07:52:50.007Z,23.18
2017-09-05T07:53:30.613Z,23.31
2017-09-05T07:54:11.238Z,23.34
2017-09-05T07:54:51.819Z,23.34
2017-09-05T07:55:32.435Z,23.39
2017-09-05T07:56:14.508Z,23.44
2017-09-05T07:56:55.099Z,23.34
2017-09-05T07:57:35.712Z,23.41
2017-09-05T07:58:16.360Z,23.43
2017-09-05T07:58:56.947Z,23.44
2017-09-05T07:59:37.545Z,23.44
2017-09-05T08:00:18.145Z,23.46
2017-09-05T08:00:58.723Z,23.37
2017-09-05T08:01:39.596Z,23.39
2017-09-05T08:02:20.179Z,23.39
2017-09-05T08:03:00.798Z,23.39
2017-09-05T08:03:41.466Z,23.24
2017-09-05T08:04:22.135Z,23.24
2017-09-05T08:05:02.719Z,23.21
2017-09-05T08:05:43.425Z,23.2
2017-09-05T08:06:24.021Z,23.2
2017-09-05T08:07:04.626Z,23.12
2017-09-05T08:07:45.266Z,23.15
2017-09-05T08:08:25.922Z,23.1
2017-09-05T08:09:06.655Z,23.05
2017-09-05T08:09:47.230Z,23.05
2017-09-05T08:10:27.817Z,23.05
2017-09-05T08:11:08.423Z,23.03
2017-09-05T08:11:49.053Z,22.98
2017-09-05T08:12:29.673Z,23
2017-09-05T08:13:10.319Z,22.91
2017-09-05T08:13:51.016Z,22.91
2017-09-05T08:14:31.681Z,22.99
2017-09-05T08:15:12.332Z,22.87
2017-09-05T08:15:52.990Z,22.88
2017-09-05T08:16:33.624Z,22.84
2017-09-05T08:17:14.224Z,22.78
2017-09-05T08:17:54.957Z,22.83
2017-09-05T08:18:35.561Z,22.85
2017-09-05T08:19:16.154Z,22.81
2017-09-05T08:19:56.789Z,22.78
2017-09-05T08:20:37.472Z,22.73
2017-09-05T08:21:18.110Z,22.65
2017-09-05T08:21:58.699Z,22.69
2017-09-05T08:22:39.282Z,22.6
2017-09-05T08:23:20.087Z,22.66
2017-09-05T08:24:00.765Z,22.66
2017-09-05T08:24:41.468Z,22.62
2017-09-05T08:25:22.095Z,22.68
2017-09-05T08:26:02.694Z,22.68
2017-09-05T08:26:43.275Z,22.72
2017-09-05T08:27:23.880Z,22.78
2017-09-05T08:28:04.517Z,22.76
2017-09-05T08:28:45.516Z,22.76
2017-09-05T08:29:26.607Z,22.73
2017-09-05T08:30:07.237Z,22.73
2017-09-05T08:30:47.811Z,22.73
2017-09-05T08:31:28.497Z,22.72
2017-09-05T08:32:09.096Z,22.63
2017-09-05T08:32:49.660Z,22.66
2017-09-05T08:33:30.247Z,22.62
2017-09-05T08:34:10.865Z,22.65
2017-09-05T08:34:51.452Z,22.54
2017-09-05T08:35:32.081Z,22.57
2017-09-05T08:36:12.671Z,22.57
2017-09-05T08:36:53.268Z,22.66
2017-09-05T08:37:33.887Z,22.68
2017-09-05T08:38:14.478Z,22.55
2017-09-05T08:38:55.052Z,22.65
2017-09-05T08:39:35.629Z,22.62
2017-09-05T08:40:16.198Z,22.63
2017-09-05T08:40:56.780Z,22.55
2017-09-05T08:41:37.366Z,22.65
2017-09-05T08:42:17.956Z,22.59
2017-09-05T08:42:58.551Z,22.59
2017-09-05T08:43:39.127Z,22.48
2017-09-05T08:44:19.717Z,22.47
2017-09-05T08:45:00.299Z,22.45
2017-09-05T08:45:40.895Z,22.41